createdAt,value
2023-01-25T00:00:08.121Z,1.20
2023-01-25T00:02:34.872Z,1.20
2023-01-25T00:05:01.659Z,1.30
2023-01-25T00:07:28.373Z,1.20
2023-01-25T00:09:55.204Z,1.20
2023-01-25T00:12:21.922Z,1.20
2023-01-25T00:14:48.573Z,1.20
2023-01-25T00:17:15.356Z,1.20
2023-01-25T00:19:42.022Z,1.20
2023-01-25T00:22:08.946Z,1.20
2023-01-25T00:24:36.926Z,1.20
2023-01-25T00:27:03.920Z,1.20
2023-01-25T00:29:30.659Z,1.20
2023-01-25T00:31:57.386Z,1.20
2023-01-25T00:34:27.171Z,1.20
2023-01-25T00:37:28.661Z,1.20
2023-01-25T00:39:55.504Z,1.20
2023-01-25T00:42:23.418Z,1.20
2023-01-25T00:44:50.228Z,1.20
2023-01-25T00:47:17.157Z,1.20
2023-01-25T00:49:44.779Z,1.20
2023-01-25T00:52:11.831Z,1.30
2023-01-25T00:54:38.821Z,1.30
2023-01-25T00:57:05.662Z,1.30
2023-01-25T00:59:32.488Z,1.30
2023-01-25T01:01:59.226Z,2.10
2023-01-25T01:04:26.140Z,1.20
2023-01-25T01:06:53.914Z,1.20
2023-01-25T01:09:21.573Z,1.30
2023-01-25T01:11:48.500Z,1.30
2023-01-25T01:14:15.241Z,1.30
2023-01-25T01:16:42.377Z,1.30
2023-01-25T01:19:09.163Z,1.30
2023-01-25T01:21:36.212Z,1.20
2023-01-25T01:24:03.031Z,1.20
2023-01-25T01:26:29.756Z,1.20
2023-01-25T01:28:57.513Z,1.20
2023-01-25T01:31:24.690Z,1.20
2023-01-25T01:33:53.455Z,1.20
2023-01-25T01:36:22.627Z,1.20
2023-01-25T01:38:49.672Z,1.30
2023-01-25T01:41:17.167Z,1.20
2023-01-25T01:43:43.984Z,1.20
2023-01-25T01:46:53.111Z,1.20
2023-01-25T01:49:26.638Z,1.20
2023-01-25T01:51:59.140Z,1.20
2023-01-25T01:54:38.278Z,1.20
2023-01-25T01:57:08.608Z,1.20
2023-01-25T01:59:52.110Z,1.20
2023-01-25T02:02:18.813Z,1.30
2023-01-25T02:04:47.188Z,1.20
2023-01-25T02:07:17.864Z,1.20
2023-01-25T02:09:44.615Z,1.20
2023-01-25T02:12:11.834Z,1.20
2023-01-25T02:14:41.599Z,1.20
2023-01-25T02:17:10.893Z,1.20
2023-01-25T02:19:51.161Z,1.20
2023-01-25T02:22:22.863Z,1.20
2023-01-25T02:25:03.090Z,1.20
2023-01-25T02:27:29.839Z,1.20
2023-01-25T02:29:56.854Z,1.30
2023-01-25T02:32:23.641Z,0.60
2023-01-25T02:34:50.345Z,1.20
2023-01-25T02:37:17.187Z,1.20
2023-01-25T02:39:44.175Z,1.30
2023-01-25T02:42:10.827Z,1.30
2023-01-25T02:44:38.083Z,1.30
2023-01-25T02:47:04.734Z,1.20
2023-01-25T02:49:31.423Z,1.20
2023-01-25T02:51:58.063Z,1.20
2023-01-25T02:54:28.609Z,1.20
2023-01-25T02:56:55.649Z,1.20
2023-01-25T02:59:22.917Z,1.20
2023-01-25T03:01:50.122Z,1.20
2023-01-25T03:04:17.276Z,1.20
2023-01-25T03:06:43.998Z,1.20
2023-01-25T03:09:11.414Z,1.20
2023-01-25T03:11:38.079Z,1.20
2023-01-25T03:14:05.110Z,1.20
2023-01-25T03:16:32.504Z,1.20
2023-01-25T03:18:59.290Z,1.20
2023-01-25T03:21:26.193Z,1.20
2023-01-25T03:24:01.260Z,1.20
2023-01-25T03:26:29.019Z,1.20
2023-01-25T03:28:55.725Z,1.20
2023-01-25T03:31:22.643Z,1.20
2023-01-25T03:33:49.767Z,1.20
2023-01-25T03:36:16.674Z,1.20
2023-01-25T03:38:43.388Z,1.10
2023-01-25T03:41:12.234Z,1.20
2023-01-25T03:43:39.564Z,1.20
2023-01-25T03:46:06.445Z,1.20
2023-01-25T03:48:33.192Z,1.20
2023-01-25T03:51:00.533Z,1.10
2023-01-25T03:53:32.077Z,1.20
2023-01-25T03:56:01.759Z,1.20
2023-01-25T03:58:29.528Z,1.20
2023-01-25T04:00:58.074Z,1.10
2023-01-25T04:03:25.536Z,1.20
2023-01-25T04:05:53.542Z,1.10
2023-01-25T04:08:20.527Z,1.20
2023-01-25T04:11:00.221Z,1.10
2023-01-25T04:13:27.105Z,1.10
2023-01-25T04:15:53.847Z,1.10
2023-01-25T04:18:20.579Z,1.10
2023-01-25T04:20:55.390Z,1.10
2023-01-25T04:23:22.303Z,1.10
2023-01-25T04:25:56.216Z,1.10
2023-01-25T04:28:23.482Z,1.10
2023-01-25T04:30:50.222Z,1.10
2023-01-25T04:33:16.923Z,1.10
2023-01-25T04:35:44.996Z,1.10
2023-01-25T04:38:12.281Z,1.20
2023-01-25T04:40:39.325Z,1.20
2023-01-25T04:43:06.507Z,1.10
2023-01-25T04:45:33.676Z,1.10
2023-01-25T04:48:03.560Z,1.10
2023-01-25T04:50:30.669Z,1.10
2023-01-25T04:52:57.330Z,1.20
2023-01-25T04:55:23.990Z,1.10
2023-01-25T04:57:51.137Z,1.20
2023-01-25T05:00:18.799Z,1.10
2023-01-25T05:02:45.744Z,1.10
2023-01-25T05:05:12.870Z,1.10
2023-01-25T05:07:39.737Z,1.10
2023-01-25T05:10:07.400Z,1.00
2023-01-25T05:12:34.011Z,1.10
2023-01-25T05:15:00.753Z,1.10
2023-01-25T05:17:27.421Z,1.00
2023-01-25T05:19:54.069Z,1.10
2023-01-25T05:22:21.817Z,1.10
2023-01-25T05:24:48.606Z,1.10
2023-01-25T05:27:19.914Z,1.10
2023-01-25T05:29:46.831Z,1.10
2023-01-25T05:32:19.651Z,1.10
2023-01-25T05:34:46.526Z,1.10
2023-01-25T05:37:16.743Z,1.10
2023-01-25T05:39:43.494Z,1.10
2023-01-25T05:42:19.345Z,1.10
2023-01-25T05:44:47.775Z,1.10
2023-01-25T05:47:16.568Z,1.10
2023-01-25T05:49:43.712Z,1.10
2023-01-25T05:52:17.474Z,1.10
2023-01-25T05:54:44.135Z,1.10
2023-01-25T05:57:10.972Z,1.00
2023-01-25T05:59:37.637Z,1.10
2023-01-25T06:02:04.289Z,1.00
2023-01-25T06:04:30.963Z,1.00
2023-01-25T06:06:57.843Z,1.00
2023-01-25T06:09:24.636Z,1.00
2023-01-25T06:11:51.295Z,1.00
2023-01-25T06:14:18.087Z,1.10
2023-01-25T06:16:44.740Z,1.10
2023-01-25T06:19:13.481Z,1.10
2023-01-25T06:21:40.195Z,1.10
2023-01-25T06:24:07.375Z,1.00
2023-01-25T06:26:34.488Z,1.00
2023-01-25T06:29:01.186Z,1.00
2023-01-25T06:31:28.012Z,1.00
2023-01-25T06:33:54.864Z,1.10
2023-01-25T06:36:22.586Z,1.10
2023-01-25T06:38:53.133Z,1.10
2023-01-25T06:41:20.446Z,1.10
2023-01-25T06:43:48.451Z,1.10
2023-01-25T06:46:15.205Z,1.00
2023-01-25T06:48:42.997Z,1.00
2023-01-25T06:51:12.235Z,1.00
2023-01-25T06:53:41.478Z,1.00
2023-01-25T06:56:21.405Z,0.90
2023-01-25T06:58:49.127Z,0.90
2023-01-25T07:01:21.555Z,0.90
2023-01-25T07:03:52.848Z,0.90
2023-01-25T07:06:20.297Z,0.80
2023-01-25T07:08:47.269Z,0.90
2023-01-25T07:11:14.735Z,0.90
2023-01-25T07:13:42.664Z,0.90
2023-01-25T07:16:13.108Z,0.90
2023-01-25T07:18:40.485Z,1.00
2023-01-25T07:21:18.341Z,0.90
2023-01-25T07:23:45.162Z,1.00
2023-01-25T07:26:17.369Z,1.00
2023-01-25T07:28:44.936Z,0.90
2023-01-25T07:31:11.859Z,0.90
2023-01-25T07:33:38.524Z,0.90
2023-01-25T07:36:07.409Z,0.90
2023-01-25T07:38:34.544Z,0.90
2023-01-25T07:41:01.272Z,0.90
2023-01-25T07:43:28.061Z,0.90
2023-01-25T07:46:12.682Z,1.00
2023-01-25T07:48:41.123Z,1.00
2023-01-25T07:51:22.310Z,1.00
2023-01-25T07:53:54.098Z,1.00
2023-01-25T07:56:22.799Z,1.00
2023-01-25T07:58:49.538Z,1.00
2023-01-25T08:01:18.314Z,1.00
2023-01-25T08:03:45.980Z,1.00
2023-01-25T08:06:12.971Z,1.10
2023-01-25T08:08:48.096Z,1.10
2023-01-25T08:11:21.093Z,1.10
2023-01-25T08:13:49.634Z,1.20
2023-01-25T08:16:18.112Z,1.10
2023-01-25T08:18:51.467Z,1.20
2023-01-25T08:21:18.650Z,1.20
2023-01-25T08:23:45.660Z,1.20
2023-01-25T08:26:14.596Z,1.20
2023-01-25T08:28:41.235Z,1.20
2023-01-25T08:31:10.224Z,1.20
2023-01-25T08:33:37.200Z,1.20
2023-01-25T08:36:04.466Z,1.20
2023-01-25T08:38:31.562Z,1.30
2023-01-25T08:41:06.299Z,1.30
2023-01-25T08:43:33.019Z,1.30
2023-01-25T08:45:59.767Z,1.30
2023-01-25T08:48:26.440Z,1.30
2023-01-25T08:50:53.404Z,1.20
2023-01-25T08:53:20.361Z,1.30
2023-01-25T08:55:47.321Z,1.30
2023-01-25T08:58:16.057Z,1.30
2023-01-25T09:00:43.807Z,1.30
2023-01-25T09:03:11.709Z,1.40
2023-01-25T09:05:39.590Z,1.40
2023-01-25T09:08:08.021Z,1.40
2023-01-25T09:10:34.866Z,1.40
2023-01-25T09:13:01.665Z,1.40
2023-01-25T09:15:28.573Z,1.50
2023-01-25T09:17:56.613Z,1.50
2023-01-25T09:20:23.873Z,1.50
2023-01-25T09:22:50.553Z,1.50
2023-01-25T09:25:17.536Z,1.50
2023-01-25T09:27:44.229Z,1.50
2023-01-25T09:30:18.187Z,1.50
2023-01-25T09:32:45.942Z,1.50
2023-01-25T09:35:12.681Z,1.50
2023-01-25T09:37:39.362Z,1.50
2023-01-25T09:40:07.528Z,1.50
2023-01-25T09:42:58.754Z,1.50
2023-01-25T09:45:32.708Z,1.50
2023-01-25T09:48:10.921Z,1.50
2023-01-25T09:50:46.816Z,1.50
2023-01-25T09:53:31.743Z,1.50
2023-01-25T09:56:21.618Z,1.50
2023-01-25T09:58:51.497Z,1.50
2023-01-25T10:01:32.849Z,1.50
2023-01-25T10:04:11.002Z,1.50
2023-01-25T10:06:44.018Z,1.50
2023-01-25T10:09:36.281Z,1.50
2023-01-25T10:12:15.571Z,1.50
2023-01-25T10:14:42.551Z,1.50
2023-01-25T10:17:32.139Z,1.50
2023-01-25T10:20:33.873Z,2.10
2023-01-25T10:23:36.947Z,1.50
2023-01-25T10:26:24.883Z,1.60
2023-01-25T10:29:13.098Z,1.60
2023-01-25T10:31:54.025Z,1.60
2023-01-25T10:34:31.738Z,1.70
2023-01-25T10:37:03.419Z,1.70
2023-01-25T10:39:31.224Z,1.70
2023-01-25T10:42:06.885Z,1.70
2023-01-25T10:44:34.536Z,1.70
2023-01-25T10:47:29.468Z,1.70
2023-01-25T10:49:58.251Z,1.70
2023-01-25T10:52:31.054Z,1.60
2023-01-25T10:55:18.627Z,1.50
2023-01-25T10:57:49.246Z,1.40
2023-01-25T11:00:31.935Z,1.40
2023-01-25T11:02:58.747Z,1.40
2023-01-25T11:05:31.179Z,1.30
2023-01-25T11:07:58.973Z,1.30
2023-01-25T11:10:29.800Z,1.30
2023-01-25T11:13:15.354Z,1.30
2023-01-25T11:15:44.877Z,1.30
2023-01-25T11:18:25.408Z,1.30
2023-01-25T11:21:18.383Z,1.30
2023-01-25T11:24:13.176Z,1.30
2023-01-25T11:26:40.951Z,1.40
2023-01-25T11:29:16.717Z,1.40
2023-01-25T11:31:46.667Z,1.40
2023-01-25T11:34:16.482Z,1.50
2023-01-25T11:37:10.910Z,1.50
2023-01-25T11:39:59.640Z,1.40
2023-01-25T11:42:46.643Z,1.40
2023-01-25T11:45:19.300Z,1.30
2023-01-25T11:48:07.330Z,1.30
2023-01-25T11:51:07.093Z,1.30
2023-01-25T11:54:07.472Z,1.40
2023-01-25T11:57:00.796Z,1.40
2023-01-25T11:59:46.056Z,1.50
2023-01-25T12:02:31.119Z,1.60
2023-01-25T12:05:21.669Z,1.50
2023-01-25T12:08:13.442Z,1.50
2023-01-25T12:10:43.537Z,1.50
2023-01-25T12:13:30.433Z,1.50
2023-01-25T12:16:02.269Z,1.40
2023-01-25T12:18:48.491Z,1.30
2023-01-25T12:21:41.465Z,1.30
2023-01-25T12:24:17.928Z,1.30
2023-01-25T12:27:07.357Z,1.30
2023-01-25T12:29:46.307Z,1.30
2023-01-25T12:32:26.663Z,1.30
2023-01-25T12:35:04.394Z,1.30
2023-01-25T12:37:38.281Z,1.30
2023-01-25T12:40:20.560Z,1.30
2023-01-25T12:42:58.958Z,1.30
2023-01-25T12:45:32.509Z,1.30
2023-01-25T12:48:03.507Z,1.30
2023-01-25T12:50:34.921Z,1.40
2023-01-25T12:53:17.685Z,1.40
2023-01-25T12:55:44.775Z,1.40
2023-01-25T12:58:37.050Z,1.40
2023-01-25T13:01:40.808Z,1.40
2023-01-25T13:04:17.623Z,1.40
2023-01-25T13:07:01.315Z,1.40
2023-01-25T13:09:33.607Z,1.40
2023-01-25T13:12:03.717Z,1.40
2023-01-25T13:14:38.834Z,1.40
2023-01-25T13:17:11.561Z,1.40
2023-01-25T13:19:41.787Z,1.40
2023-01-25T13:22:11.036Z,1.40
2023-01-25T13:25:02.902Z,1.50
2023-01-25T13:27:31.172Z,1.50
2023-01-25T13:30:03.813Z,1.50
2023-01-25T13:32:33.549Z,1.50
2023-01-25T13:35:01.643Z,1.50
2023-01-25T13:37:42.501Z,1.50
2023-01-25T13:40:31.795Z,1.50
2023-01-25T13:43:03.771Z,1.50
2023-01-25T13:45:34.534Z,1.40
2023-01-25T13:48:11.492Z,1.40
2023-01-25T13:50:44.257Z,1.40
2023-01-25T13:53:18.453Z,1.40
2023-01-25T13:55:47.291Z,1.30
2023-01-25T13:58:23.707Z,1.30
2023-01-25T14:00:54.589Z,1.30
2023-01-25T14:03:49.449Z,1.20
2023-01-25T14:06:22.238Z,1.20
2023-01-25T14:08:49.589Z,1.10
2023-01-25T14:11:25.321Z,1.10
2023-01-25T14:14:16.050Z,1.00
2023-01-25T14:16:42.817Z,1.00
2023-01-25T14:19:26.136Z,1.00
2023-01-25T14:22:14.007Z,0.90
2023-01-25T14:24:40.871Z,0.90
2023-01-25T14:27:13.198Z,0.90
2023-01-25T14:29:40.124Z,0.90
2023-01-25T14:32:06.996Z,0.90
2023-01-25T14:34:33.803Z,0.90
2023-01-25T14:37:20.815Z,0.90
2023-01-25T14:39:49.535Z,0.90
2023-01-25T14:42:16.788Z,0.90
2023-01-25T14:44:44.517Z,0.80
2023-01-25T14:47:31.428Z,0.90
2023-01-25T14:50:32.513Z,0.90
2023-01-25T14:53:06.487Z,0.80
2023-01-25T14:55:33.246Z,0.80
2023-01-25T14:58:00.940Z,0.80
2023-01-25T15:00:31.756Z,0.80
2023-01-25T15:03:00.282Z,0.70
2023-01-25T15:05:35.113Z,0.80
2023-01-25T15:08:07.868Z,0.70
2023-01-25T15:10:36.812Z,0.80
2023-01-25T15:13:15.322Z,0.70
2023-01-25T15:16:02.870Z,0.70
2023-01-25T15:18:48.600Z,0.70
2023-01-25T15:21:23.890Z,0.70
2023-01-25T15:23:51.335Z,0.70
2023-01-25T15:26:22.498Z,0.70
2023-01-25T15:28:51.429Z,0.70
2023-01-25T15:31:31.361Z,0.70
2023-01-25T15:33:59.961Z,0.70
2023-01-25T15:36:27.164Z,0.70
2023-01-25T15:38:54.251Z,0.70
2023-01-25T15:41:21.284Z,0.60
2023-01-25T15:43:48.637Z,0.60
2023-01-25T15:46:21.777Z,0.60
2023-01-25T15:48:49.812Z,0.60
2023-01-25T15:51:16.716Z,0.60
2023-01-25T15:53:43.615Z,0.60
2023-01-25T15:56:14.184Z,0.50
2023-01-25T15:58:43.157Z,0.50
2023-01-25T16:01:10.077Z,0.50
2023-01-25T16:03:36.857Z,0.50
2023-01-25T16:06:07.694Z,0.50
2023-01-25T16:08:37.145Z,0.40
2023-01-25T16:11:03.903Z,0.50
2023-01-25T16:13:30.565Z,0.50
2023-01-25T16:15:57.426Z,0.50
2023-01-25T16:18:24.101Z,0.40
2023-01-25T16:20:50.975Z,0.40
2023-01-25T16:23:17.666Z,0.40
2023-01-25T16:25:47.258Z,0.40
2023-01-25T16:28:15.477Z,0.40
2023-01-25T16:30:44.993Z,0.40
2023-01-25T16:33:12.067Z,0.40
2023-01-25T16:35:38.779Z,0.40
2023-01-25T16:38:05.490Z,0.40
2023-01-25T16:40:39.658Z,0.40
2023-01-25T16:43:06.568Z,0.40
2023-01-25T16:45:33.279Z,0.40
2023-01-25T16:48:01.710Z,0.30
2023-01-25T16:50:28.438Z,0.30
2023-01-25T16:52:56.193Z,0.30
2023-01-25T16:55:23.105Z,0.30
2023-01-25T16:57:50.907Z,0.30
2023-01-25T17:00:17.991Z,0.30
2023-01-25T17:02:58.351Z,0.40
2023-01-25T17:05:33.784Z,0.30
2023-01-25T17:08:00.551Z,0.30
2023-01-25T17:10:28.888Z,0.30
2023-01-25T17:12:55.572Z,0.40
2023-01-25T17:15:22.246Z,0.40
2023-01-25T17:17:49.102Z,0.40
2023-01-25T17:20:16.178Z,0.40
2023-01-25T17:22:44.406Z,0.40
2023-01-25T17:25:11.169Z,0.30
2023-01-25T17:27:38.447Z,0.40
2023-01-25T17:30:06.040Z,0.40
2023-01-25T17:32:32.860Z,0.40
2023-01-25T17:35:02.592Z,0.50
2023-01-25T17:37:29.299Z,0.50
2023-01-25T17:39:56.173Z,0.50
2023-01-25T17:42:22.966Z,0.50
2023-01-25T17:44:49.639Z,0.50
2023-01-25T17:47:16.336Z,0.50
2023-01-25T17:49:43.225Z,0.50
2023-01-25T17:52:09.892Z,0.50
2023-01-25T17:54:36.630Z,0.50
2023-01-25T17:57:03.392Z,0.50
2023-01-25T17:59:30.269Z,0.50
2023-01-25T18:01:57.854Z,0.50
2023-01-25T18:04:25.446Z,0.40
2023-01-25T18:06:52.188Z,0.40
2023-01-25T18:09:19.008Z,0.50
2023-01-25T18:11:45.927Z,0.50
2023-01-25T18:14:17.065Z,0.50
2023-01-25T18:16:44.706Z,0.50
2023-01-25T18:19:11.727Z,0.40
2023-01-25T18:21:39.018Z,0.50
2023-01-25T18:24:20.707Z,0.40
2023-01-25T18:26:47.484Z,0.40
2023-01-25T18:29:14.126Z,0.40
2023-01-25T18:31:41.109Z,0.40
2023-01-25T18:34:07.851Z,0.50
2023-01-25T18:36:34.613Z,0.50
2023-01-25T18:39:01.473Z,0.50
2023-01-25T18:41:28.182Z,0.50
2023-01-25T18:43:56.630Z,0.50
2023-01-25T18:46:23.591Z,0.50
2023-01-25T18:48:51.183Z,0.50
2023-01-25T18:51:18.002Z,0.50
2023-01-25T18:53:47.452Z,0.50
2023-01-25T18:56:17.093Z,0.50
2023-01-25T18:58:44.312Z,0.50
2023-01-25T19:01:21.804Z,0.50
2023-01-25T19:03:49.436Z,0.50
2023-01-25T19:06:16.540Z,0.50
2023-01-25T19:08:46.395Z,0.50
2023-01-25T19:11:15.008Z,0.50
2023-01-25T19:13:42.572Z,0.50
2023-01-25T19:16:17.326Z,0.50
2023-01-25T19:18:47.014Z,0.60
2023-01-25T19:21:20.975Z,0.50
2023-01-25T19:23:47.867Z,0.60
2023-01-25T19:26:17.101Z,0.60
2023-01-25T19:28:45.643Z,0.60
2023-01-25T19:31:13.951Z,0.60
2023-01-25T19:33:41.268Z,0.60
2023-01-25T19:36:12.952Z,0.60
2023-01-25T19:38:40.330Z,0.60
2023-01-25T19:41:16.751Z,0.70
2023-01-25T19:43:43.753Z,0.60
2023-01-25T19:46:12.666Z,0.60
2023-01-25T19:48:40.786Z,0.60
2023-01-25T19:51:11.872Z,1.00
2023-01-25T19:53:39.963Z,0.60
2023-01-25T19:56:08.320Z,0.70
2023-01-25T19:58:35.460Z,0.60
2023-01-25T20:01:10.212Z,0.60
2023-01-25T20:03:37.451Z,0.60
2023-01-25T20:06:06.948Z,0.60
2023-01-25T20:08:36.271Z,0.60
2023-01-25T20:11:17.870Z,0.50
2023-01-25T20:13:44.756Z,0.40
2023-01-25T20:16:12.181Z,0.40
2023-01-25T20:18:39.515Z,0.30
2023-01-25T20:21:20.887Z,0.30
2023-01-25T20:23:56.128Z,0.30
2023-01-25T20:26:25.176Z,0.30
2023-01-25T20:28:53.468Z,0.30
2023-01-25T20:31:22.400Z,0.30
2023-01-25T20:33:50.264Z,0.30
2023-01-25T20:36:17.575Z,0.20
2023-01-25T20:38:44.628Z,0.20
2023-01-25T20:41:14.170Z,0.40
2023-01-25T20:43:48.987Z,0.20
2023-01-25T20:46:16.011Z,0.20
2023-01-25T20:48:43.013Z,0.20
2023-01-25T20:51:12.866Z,0.30
2023-01-25T20:53:41.202Z,0.40
2023-01-25T20:56:08.855Z,0.40
2023-01-25T20:58:35.868Z,0.40
2023-01-25T21:01:02.780Z,0.20
2023-01-25T21:03:30.201Z,0.20
2023-01-25T21:05:58.633Z,0.20
2023-01-25T21:08:25.817Z,0.20
2023-01-25T21:10:55.077Z,0.20
2023-01-25T21:13:22.447Z,0.20
2023-01-25T21:16:00.100Z,0.30
2023-01-25T21:18:32.132Z,0.30
2023-01-25T21:21:06.040Z,0.40
2023-01-25T21:23:34.147Z,0.40
2023-01-25T21:26:02.611Z,0.40
2023-01-25T21:28:29.509Z,0.50
2023-01-25T21:30:56.307Z,0.50
2023-01-25T21:33:23.147Z,0.50
2023-01-25T21:35:54.305Z,0.40
2023-01-25T21:38:21.391Z,0.40
2023-01-25T21:40:48.099Z,0.40
2023-01-25T21:43:17.829Z,0.40
2023-01-25T21:46:03.674Z,0.40
2023-01-25T21:48:49.114Z,0.30
2023-01-25T21:51:34.645Z,0.30
2023-01-25T21:54:01.545Z,0.30
2023-01-25T21:56:31.333Z,0.30
2023-01-25T21:58:58.048Z,0.30
2023-01-25T22:01:24.830Z,0.20
2023-01-25T22:03:51.755Z,0.20
2023-01-25T22:06:18.991Z,0.20
2023-01-25T22:08:46.131Z,0.20
2023-01-25T22:11:13.074Z,0.20
2023-01-25T22:13:40.153Z,0.10
2023-01-25T22:16:12.831Z,0.10
2023-01-25T22:18:41.865Z,0.10
2023-01-25T22:21:15.659Z,0.00
2023-01-25T22:23:42.846Z,0.00
2023-01-25T22:26:20.524Z,-0.10
2023-01-25T22:28:52.249Z,0.00
2023-01-25T22:31:21.756Z,0.00
2023-01-25T22:33:49.183Z,0.00
2023-01-25T22:36:18.111Z,0.00
2023-01-25T22:38:45.131Z,0.10
2023-01-25T22:41:17.245Z,0.10
2023-01-25T22:43:44.379Z,0.10
2023-01-25T22:46:14.151Z,0.00
2023-01-25T22:48:41.088Z,0.00
2023-01-25T22:51:16.888Z,0.00
2023-01-25T22:53:43.785Z,0.00
2023-01-25T22:56:12.851Z,-0.10
2023-01-25T22:58:41.401Z,0.00
2023-01-25T23:01:13.489Z,-0.10
2023-01-25T23:03:41.293Z,-0.10
2023-01-25T23:06:13.450Z,-0.10
2023-01-25T23:08:40.808Z,-0.10
2023-01-25T23:11:21.496Z,-0.20
2023-01-25T23:14:07.122Z,-0.20
2023-01-25T23:16:35.137Z,0.00
2023-01-25T23:19:03.236Z,-0.30
2023-01-25T23:21:30.619Z,-0.30
2023-01-25T23:24:00.699Z,-0.40
2023-01-25T23:26:29.263Z,-0.30
2023-01-25T23:28:57.570Z,-0.30
2023-01-25T23:31:26.034Z,-0.30
2023-01-25T23:33:58.490Z,-0.20
2023-01-25T23:36:30.225Z,-0.10
2023-01-25T23:38:58.031Z,-0.10
2023-01-25T23:41:27.239Z,-0.10
2023-01-25T23:43:55.117Z,0.00
2023-01-25T23:46:22.549Z,-0.10
2023-01-25T23:48:49.291Z,-0.10
2023-01-25T23:51:17.006Z,-0.20
2023-01-25T23:53:44.256Z,-0.20
2023-01-25T23:56:15.095Z,-0.20
2023-01-25T23:58:41.826Z,-0.20
